Time;durP1;ratioP1;P1;durP2;ratioP2;P2;SDS_P1;SDS_P2;PMS_P1;PMS_P2;Temp;Humidity;BMP_temperature;BMP_pressure;BME280_temperature;BME280_humidity;BME280_pressure;Samples;Min_cycle;Max_cycle;Signal;HPM_P1;HPM_P2
2022/10/26 00:06:00;;;;;;;14.95;5.82;;;18.60;62.80;;;;;;21162931;28;20044;-63
2022/10/26 00:16:11;;;;;;;15.00;5.03;;;18.20;64.00;;;;;;21162866;28;20127;-60
2022/10/26 00:26:13;;;;;;;11.95;5.13;;;18.00;64.10;;;;;;21144009;28;20093;-63
2022/10/26 00:36:15;;;;;;;8.88;4.70;;;17.70;65.10;;;;;;21161954;28;20052;-63
2022/10/26 00:46:37;;;;;;;12.15;4.95;;;17.60;65.60;;;;;;21166834;28;20126;-65
2022/10/26 00:56:39;;;;;;;12.77;4.57;;;17.60;65.50;;;;;;21176672;28;20062;-62
2022/10/26 01:06:42;;;;;;;9.75;4.47;;;17.60;65.80;;;;;;21176130;28;20048;-65
2022/10/26 01:16:49;;;;;;;9.25;3.97;;;17.40;66.10;;;;;;21174639;28;20055;-60
2022/10/26 01:27:19;;;;;;;10.43;4.13;;;17.40;66.50;;;;;;21175058;28;20503;-62
2022/10/26 01:37:27;;;;;;;8.48;4.18;;;17.30;66.70;;;;;;21174055;28;20491;-66
2022/10/26 01:47:35;;;;;;;10.68;3.75;;;17.20;67.50;;;;;;21172567;28;20437;-58
2022/10/26 01:57:39;;;;;;;8.35;3.83;;;16.90;68.30;;;;;;21172123;28;20097;-63
2022/10/26 02:08:30;;;;;;;9.25;4.50;;;16.90;68.60;;;;;;21170958;28;20075;-63
2022/10/26 02:18:59;;;;;;;8.10;4.05;;;17.00;68.30;;;;;;20746117;28;20050;-62
2022/10/26 02:29:05;;;;;;;12.15;4.05;;;16.90;68.60;;;;;;20745450;28;20044;-64
2022/10/26 02:39:10;;;;;;;7.85;3.60;;;16.90;69.20;;;;;;20744510;28;20054;-63
2022/10/26 02:49:12;;;;;;;10.55;4.00;;;16.90;69.30;;;;;;20874321;28;20052;-63
2022/10/26 02:59:21;;;;;;;8.93;4.28;;;16.90;69.30;;;;;;21167482;28;20510;-60
2022/10/26 03:09:23;;;;;;;7.90;4.65;;;16.90;69.50;;;;;;21166206;28;20187;-62
2022/10/26 03:19:25;;;;;;;10.80;6.03;;;16.90;69.50;;;;;;21164900;28;20055;-62
2022/10/26 03:29:29;;;;;;;7.20;3.85;;;17.00;69.20;;;;;;21165918;28;20535;-64
2022/10/26 03:39:38;;;;;;;12.13;4.53;;;16.90;69.70;;;;;;21164720;28;20053;-64
2022/10/26 03:49:45;;;;;;;10.27;4.43;;;16.80;69.80;;;;;;21162899;28;20544;-63
2022/10/26 03:59:49;;;;;;;10.68;4.15;;;16.70;70.20;;;;;;21162495;28;20058;-58
2022/10/26 04:09:51;;;;;;;9.18;4.93;;;16.80;70.20;;;;;;21163392;28;20040;-58
2022/10/26 04:19:53;;;;;;;12.13;4.30;;;16.90;70.10;;;;;;21167994;28;20086;-59
2022/10/26 04:29:56;;;;;;;9.95;4.57;;;17.00;70.20;;;;;;21179496;28;20130;-58
2022/10/26 04:39:59;;;;;;;9.00;4.07;;;17.00;70.00;;;;;;21178760;28;20408;-57
2022/10/26 04:50:06;;;;;;;9.68;4.47;;;16.90;69.80;;;;;;21176787;28;20500;-58
2022/10/26 05:00:08;;;;;;;11.53;5.03;;;16.80;70.30;;;;;;21176481;28;20120;-58
2022/10/26 05:10:10;;;;;;;10.35;4.57;;;16.80;70.30;;;;;;21175656;28;20051;-62
2022/10/26 05:20:13;;;;;;;44.65;41.33;;;16.70;70.50;;;;;;21175060;28;20571;-65
2022/10/26 05:30:15;;;;;;;13.13;5.68;;;16.70;70.20;;;;;;21172885;28;20048;-63
2022/10/26 05:40:17;;;;;;;11.52;5.85;;;16.70;70.30;;;;;;21172490;28;20477;-64
2022/10/26 05:50:19;;;;;;;13.70;6.13;;;16.70;70.50;;;;;;21171344;28;20100;-63
2022/10/26 06:00:23;;;;;;;11.35;5.45;;;16.80;70.30;;;;;;21172874;28;20461;-61
2022/10/26 06:10:25;;;;;;;14.07;5.68;;;16.80;70.30;;;;;;21171058;28;20054;-59
2022/10/26 06:20:44;;;;;;;10.63;4.97;;;16.70;70.70;;;;;;21170032;28;20415;-64
2022/10/26 06:30:46;;;;;;;13.65;4.80;;;16.50;70.70;;;;;;21168552;28;20052;-60
2022/10/26 06:40:51;;;;;;;12.43;4.78;;;16.50;70.90;;;;;;21149986;28;20050;-65
2022/10/26 06:50:54;;;;;;;8.70;4.20;;;16.50;71.30;;;;;;21166435;28;20081;-62
2022/10/26 07:00:57;;;;;;;11.57;4.70;;;16.40;71.50;;;;;;21166113;28;20044;-59
2022/10/26 07:10:59;;;;;;;9.68;4.95;;;16.40;71.90;;;;;;21166243;28;20109;-62
2022/10/26 07:21:01;;;;;;;17.48;5.55;;;16.40;72.00;;;;;;21164364;28;20058;-65
2022/10/26 07:31:04;;;;;;;20.05;7.70;;;16.40;71.90;;;;;;21164216;28;20418;-63
2022/10/26 07:41:06;;;;;;;5.28;3.20;;;16.50;71.60;;;;;;21163620;28;20059;-58
2022/10/26 07:51:08;;;;;;;12.57;5.32;;;16.80;70.60;;;;;;21161655;28;20130;-63
2022/10/26 08:01:12;;;;;;;14.77;6.32;;;18.30;65.80;;;;;;21159584;28;20044;-59
2022/10/26 08:11:15;;;;;;;22.13;8.50;;;19.00;63.40;;;;;;21225870;28;20043;-60
2022/10/26 08:21:17;;;;;;;21.92;7.93;;;18.90;63.70;;;;;;21246398;28;20051;-61
2022/10/26 08:31:19;;;;;;;18.35;7.63;;;19.00;64.20;;;;;;21246716;28;20082;-61
2022/10/26 08:41:36;;;;;;;24.13;8.90;;;19.00;64.00;;;;;;21246027;28;20121;-63
2022/10/26 08:51:39;;;;;;;22.20;12.32;;;18.90;63.60;;;;;;21243935;28;20051;-64
2022/10/26 09:01:41;;;;;;;18.50;8.25;;;18.80;62.90;;;;;;21226088;28;20047;-65
2022/10/26 09:11:51;;;;;;;17.77;7.75;;;19.10;62.50;;;;;;21258137;27;20087;-63
2022/10/26 09:22:14;;;;;;;16.02;7.88;;;19.10;62.90;;;;;;21261384;27;20063;-67
2022/10/26 09:32:23;;;;;;;23.45;8.68;;;19.10;63.30;;;;;;21258600;27;20365;-64
2022/10/26 09:42:47;;;;;;;25.95;7.47;;;19.20;64.10;;;;;;21185359;27;20517;-66
2022/10/26 09:52:49;;;;;;;26.55;9.30;;;20.10;61.50;;;;;;21170157;28;20047;-59
2022/10/26 10:02:54;;;;;;;20.42;9.23;;;20.40;59.00;;;;;;21170457;28;20050;-61
2022/10/26 10:12:55;;;;;;;22.60;9.68;;;20.70;57.50;;;;;;21169561;28;20051;-63
2022/10/26 10:22:59;;;;;;;25.67;9.30;;;20.90;55.10;;;;;;21168717;28;20487;-61
2022/10/26 10:33:11;;;;;;;19.88;8.77;;;21.30;54.70;;;;;;21150315;28;20180;-61
2022/10/26 10:43:14;;;;;;;20.85;7.45;;;21.30;53.70;;;;;;21167009;28;20051;-61
2022/10/26 10:53:31;;;;;;;22.00;8.30;;;21.20;53.40;;;;;;21168947;28;20079;-75
2022/10/26 11:03:55;;;;;;;34.42;15.13;;;21.10;52.70;;;;;;21164564;28;20138;-73
2022/10/26 11:14:24;;;;;;;17.17;8.18;;;21.30;54.20;;;;;;21146537;28;20051;-68
2022/10/26 11:24:31;;;;;;;17.42;5.90;;;21.70;52.10;;;;;;21164778;28;20048;-71
2022/10/26 11:34:43;;;;;;;17.83;6.18;;;21.80;51.40;;;;;;21163763;28;20410;-63
2022/10/26 11:45:10;;;;;;;16.93;5.10;;;21.90;51.10;;;;;;21143879;28;20604;-59
2022/10/26 11:55:12;;;;;;;16.85;5.38;;;21.90;49.30;;;;;;21163057;28;20303;-64
2022/10/26 12:05:37;;;;;;;15.40;5.65;;;21.90;50.30;;;;;;21145277;28;20135;-62
2022/10/26 12:15:39;;;;;;;10.30;4.80;;;22.00;49.00;;;;;;21163192;28;20047;-62
2022/10/26 12:25:41;;;;;;;15.00;6.40;;;21.90;48.80;;;;;;21162235;28;20469;-62
2022/10/26 12:35:44;;;;;;;15.67;4.50;;;22.00;47.90;;;;;;21161149;28;20044;-63
2022/10/26 12:46:06;;;;;;;18.37;6.80;;;22.10;47.90;;;;;;21173122;28;20130;-62
2022/10/26 12:56:14;;;;;;;9.82;3.35;;;22.40;46.30;;;;;;21176567;28;20134;-62
2022/10/26 13:06:36;;;;;;;16.05;4.07;;;22.40;45.00;;;;;;21176337;28;20059;-64
2022/10/26 13:16:44;;;;;;;7.93;3.23;;;22.70;45.00;;;;;;21176058;28;20059;-64
2022/10/26 13:27:15;;;;;;;13.85;4.80;;;22.80;44.80;;;;;;21175655;28;20065;-62
2022/10/26 13:37:26;;;;;;;12.40;4.18;;;22.90;44.40;;;;;;20748988;28;20046;-62
2022/10/26 13:47:43;;;;;;;10.57;4.00;;;22.90;44.00;;;;;;20747746;28;20050;-62
2022/10/26 13:58:03;;;;;;;9.27;3.53;;;22.80;44.00;;;;;;20747584;28;20494;-62
2022/10/26 14:08:15;;;;;;;12.32;3.40;;;22.70;44.90;;;;;;20823387;28;20040;-60
2022/10/26 14:18:22;;;;;;;8.25;2.30;;;22.80;44.90;;;;;;21003470;28;20106;-61
2022/10/26 14:28:27;;;;;;;8.82;3.22;;;23.00;43.30;;;;;;21001312;28;20053;-63
2022/10/26 14:38:36;;;;;;;5.20;2.20;;;23.00;44.80;;;;;;20996878;28;20135;-60
2022/10/26 14:48:48;;;;;;;7.40;2.70;;;23.10;42.90;;;;;;21032288;28;20056;-59
2022/10/26 14:58:52;;;;;;;4.40;1.88;;;23.00;43.50;;;;;;21083387;28;20048;-60
2022/10/26 15:08:58;;;;;;;4.82;2.47;;;23.10;43.40;;;;;;21080986;28;20119;-63
2022/10/26 15:19:15;;;;;;;9.88;3.47;;;23.00;43.60;;;;;;21080508;28;20052;-64
2022/10/26 15:29:37;;;;;;;8.00;4.18;;;22.90;44.20;;;;;;21081253;28;20117;-63
2022/10/26 15:39:39;;;;;;;11.03;3.07;;;22.80;44.80;;;;;;21079337;28;20058;-59
2022/10/26 15:49:41;;;;;;;12.35;3.80;;;22.70;45.50;;;;;;21123086;28;20480;-60
2022/10/26 15:59:43;;;;;;;9.63;3.75;;;22.60;47.00;;;;;;21162657;28;20135;-58
2022/10/26 16:09:44;;;;;;;13.35;3.53;;;22.60;47.40;;;;;;21160984;28;20043;-60
2022/10/26 16:19:46;;;;;;;8.83;2.77;;;22.70;47.90;;;;;;21174128;28;20487;-59
2022/10/26 16:29:48;;;;;;;7.27;2.90;;;22.60;46.60;;;;;;21172707;27;20063;-63
2022/10/26 16:39:51;;;;;;;8.82;2.88;;;22.60;47.00;;;;;;21158661;27;20130;-60
2022/10/26 16:49:53;;;;;;;14.53;4.33;;;22.60;48.10;;;;;;21161673;27;20056;-64
2022/10/26 16:59:56;;;;;;;14.23;5.95;;;22.60;47.30;;;;;;21184187;27;20112;-58
2022/10/26 17:09:58;;;;;;;11.85;4.53;;;22.40;47.50;;;;;;21214467;27;20039;-63
2022/10/26 17:20:01;;;;;;;18.27;6.67;;;22.30;48.90;;;;;;21167193;27;20044;-63
2022/10/26 17:30:06;;;;;;;14.57;5.00;;;22.20;48.00;;;;;;21168839;28;20051;-65
2022/10/26 17:40:08;;;;;;;13.50;5.33;;;22.10;48.90;;;;;;21185046;27;20057;-67
2022/10/26 17:50:10;;;;;;;12.50;4.57;;;22.10;50.40;;;;;;21161282;28;20799;-70
2022/10/26 18:00:13;;;;;;;11.20;4.45;;;22.10;49.40;;;;;;21165874;28;20043;-69
2022/10/26 18:10:16;;;;;;;17.58;4.18;;;22.20;49.40;;;;;;21166073;28;20553;-59
2022/10/26 18:20:19;;;;;;;21.25;10.15;;;22.20;50.30;;;;;;21149401;27;20080;-69
2022/10/26 18:30:21;;;;;;;26.35;7.25;;;22.30;52.10;;;;;;21186555;27;20452;-63
2022/10/26 18:40:23;;;;;;;14.47;6.47;;;22.10;48.00;;;;;;21194037;27;20055;-62
2022/10/26 18:50:25;;;;;;;12.35;5.40;;;21.70;48.30;;;;;;21153617;27;20135;-66
2022/10/26 19:00:27;;;;;;;24.38;7.78;;;21.60;49.40;;;;;;21170816;27;20104;-60
2022/10/26 19:10:30;;;;;;;16.70;7.65;;;21.70;50.20;;;;;;21166730;28;20071;-62
2022/10/26 19:20:31;;;;;;;18.63;8.00;;;21.60;50.00;;;;;;21166936;28;20047;-59
2022/10/26 19:30:37;;;;;;;13.73;5.50;;;21.40;49.80;;;;;;21165624;28;20040;-61
2022/10/26 19:40:40;;;;;;;10.48;4.28;;;21.10;52.70;;;;;;21164684;28;20101;-58
2022/10/26 19:50:47;;;;;;;12.93;4.25;;;20.70;54.20;;;;;;21163186;28;20051;-60
2022/10/26 20:00:50;;;;;;;13.18;4.50;;;20.40;56.00;;;;;;21163235;28;20047;-61
2022/10/26 20:10:54;;;;;;;11.13;5.20;;;20.30;56.40;;;;;;21162223;28;20127;-62
2022/10/26 20:20:57;;;;;;;18.13;6.57;;;20.20;56.60;;;;;;21163422;28;20132;-61
2022/10/26 20:30:58;;;;;;;18.50;6.85;;;20.30;56.70;;;;;;21162152;28;20112;-62
2022/10/26 20:41:01;;;;;;;12.07;5.30;;;20.40;56.70;;;;;;21162852;28;20438;-63
2022/10/26 20:51:18;;;;;;;11.50;4.35;;;20.50;55.10;;;;;;21161502;28;20055;-61
2022/10/26 21:01:26;;;;;;;9.63;4.28;;;20.60;53.80;;;;;;21164597;28;20058;-59
2022/10/26 21:11:28;;;;;;;11.70;4.90;;;20.70;52.10;;;;;;21176717;28;20047;-60
2022/10/26 21:21:30;;;;;;;10.77;4.75;;;20.50;52.80;;;;;;21175497;28;20047;-59
2022/10/26 21:31:32;;;;;;;14.05;4.60;;;20.30;54.30;;;;;;21176155;28;20048;-59
2022/10/26 21:41:36;;;;;;;9.60;3.78;;;20.40;54.50;;;;;;21156932;28;20101;-58
2022/10/26 21:51:38;;;;;;;6.50;3.40;;;20.40;55.30;;;;;;21172661;28;20060;-60
2022/10/26 22:01:40;;;;;;;11.38;4.57;;;20.30;55.70;;;;;;21172940;28;20047;-62
2022/10/26 22:11:41;;;;;;;10.35;4.45;;;20.20;57.00;;;;;;21170444;28;20079;-59
2022/10/26 22:21:42;;;;;;;14.70;4.85;;;20.10;56.70;;;;;;21170377;28;20059;-58
2022/10/26 22:31:44;;;;;;;10.80;3.95;;;19.90;57.10;;;;;;21170075;28;20046;-59
2022/10/26 22:41:48;;;;;;;12.05;3.83;;;19.70;57.90;;;;;;21171192;28;20514;-58
2022/10/26 22:51:51;;;;;;;10.52;4.13;;;19.70;57.30;;;;;;21168439;28;20479;-59
2022/10/26 23:01:52;;;;;;;8.68;3.13;;;19.70;56.90;;;;;;21167933;28;20051;-61
2022/10/26 23:11:54;;;;;;;12.48;3.55;;;19.90;56.00;;;;;;21167024;28;20075;-59
2022/10/26 23:21:56;;;;;;;8.57;4.00;;;19.80;56.60;;;;;;21165442;28;20047;-60
2022/10/26 23:31:57;;;;;;;10.85;3.30;;;19.70;56.90;;;;;;21165252;28;20051;-61
2022/10/26 23:41:59;;;;;;;9.93;3.53;;;19.70;56.30;;;;;;21165183;28;20062;-59
2022/10/26 23:52:00;;;;;;;6.85;3.20;;;19.80;56.20;;;;;;21164691;28;20047;-60
